Time;durP1;ratioP1;P1;durP2;ratioP2;P2;SDS_P1;SDS_P2;PMS_P1;PMS_P2;Temp;Humidity;BMP_temperature;BMP_pressure;BME280_temperature;BME280_humidity;BME280_pressure;Samples;Min_cycle;Max_cycle;Signal;HPM_P1;HPM_P2
2022/12/30 00:01:41;;;;;;;6.13;2.85;;;18.30;99.90;;;;;;4212742;28;20264;-74
2022/12/30 00:03:44;;;;;;;5.43;2.50;;;18.30;99.90;;;;;;4213056;28;20247;-74
2022/12/30 00:05:46;;;;;;;4.55;2.38;;;18.30;99.90;;;;;;4212610;28;20268;-74
2022/12/30 00:07:48;;;;;;;5.68;3.10;;;18.30;99.90;;;;;;4212775;28;20241;-74
2022/12/30 00:09:51;;;;;;;4.30;2.35;;;18.20;99.90;;;;;;4213022;28;20210;-73
2022/12/30 00:33:05;;;;;;;8.15;3.15;;;18.20;99.90;;;;;;4207670;28;20702;-74
2022/12/30 00:33:29;;;;;;;5.60;2.60;;;18.20;99.90;;;;;;4202708;28;20199;-74
2022/12/30 00:35:32;;;;;;;5.75;2.65;;;18.20;99.90;;;;;;4199578;28;20271;-74
2022/12/30 00:37:34;;;;;;;7.03;2.63;;;18.20;99.90;;;;;;4201336;28;20219;-74
2022/12/30 00:39:36;;;;;;;5.47;2.38;;;18.20;99.90;;;;;;4208276;28;20255;-74
2022/12/30 00:44:00;;;;;;;6.60;2.47;;;18.20;99.90;;;;;;4214734;28;20199;-74
2022/12/30 00:46:02;;;;;;;6.82;2.72;;;18.20;99.90;;;;;;4214607;28;20210;-74
2022/12/30 00:57:28;;;;;;;6.28;2.97;;;18.10;99.90;;;;;;4205008;28;20203;-74
2022/12/30 00:59:32;;;;;;;5.38;2.80;;;18.10;99.90;;;;;;4210573;28;20218;-74
2022/12/30 01:01:34;;;;;;;6.35;2.97;;;18.10;99.90;;;;;;4215083;28;20248;-74
2022/12/30 01:03:37;;;;;;;6.65;2.63;;;18.10;99.90;;;;;;4206912;28;20272;-74
2022/12/30 01:05:39;;;;;;;6.55;2.42;;;18.10;99.90;;;;;;4215883;28;20214;-74
2022/12/30 01:07:42;;;;;;;6.55;2.75;;;18.10;99.90;;;;;;4215275;28;20222;-73
2022/12/30 01:09:44;;;;;;;4.72;2.90;;;18.10;99.90;;;;;;4201913;28;20219;-74
2022/12/30 01:12:07;;;;;;;6.43;2.55;;;18.10;99.90;;;;;;4203547;28;20226;-74
2022/12/30 01:14:09;;;;;;;5.85;2.70;;;18.10;99.90;;;;;;4199417;28;20211;-74
2022/12/30 01:16:16;;;;;;;4.10;2.53;;;18.10;99.90;;;;;;4214604;28;20222;-74
2022/12/30 01:18:18;;;;;;;4.75;2.63;;;18.10;99.90;;;;;;4201602;28;20214;-74
2022/12/30 01:20:20;;;;;;;6.32;2.83;;;18.10;99.90;;;;;;4215296;28;20663;-74
2022/12/30 01:22:23;;;;;;;5.25;2.95;;;18.10;99.90;;;;;;4212940;28;20290;-74
2022/12/30 01:24:25;;;;;;;5.60;2.65;;;18.10;99.90;;;;;;4199170;28;20214;-74
2022/12/30 01:26:28;;;;;;;6.82;2.70;;;18.10;99.90;;;;;;4211281;28;20215;-74
2022/12/30 01:28:31;;;;;;;7.43;2.95;;;18.10;99.90;;;;;;4202406;28;20257;-70
2022/12/30 01:30:33;;;;;;;6.35;2.90;;;18.10;99.90;;;;;;4209114;28;20260;-70
2022/12/30 01:32:37;;;;;;;6.95;3.08;;;18.10;99.90;;;;;;4212016;28;20268;-70
2022/12/30 01:34:40;;;;;;;6.72;2.78;;;18.10;99.90;;;;;;4215349;28;20214;-70
2022/12/30 01:36:42;;;;;;;5.72;2.55;;;18.10;99.90;;;;;;4203772;28;20212;-70
2022/12/30 01:38:45;;;;;;;7.00;2.75;;;18.10;99.90;;;;;;4209786;28;20219;-70
2022/12/30 01:40:47;;;;;;;3.90;2.55;;;18.10;99.90;;;;;;4199976;28;20265;-70
2022/12/30 01:42:50;;;;;;;4.47;2.75;;;18.00;99.90;;;;;;4215023;28;20710;-70
2022/12/30 01:45:00;;;;;;;4.68;2.35;;;18.00;99.90;;;;;;4208536;28;20277;-70
2022/12/30 01:47:03;;;;;;;5.80;2.60;;;18.00;99.90;;;;;;4202664;28;20206;-70
2022/12/30 01:49:08;;;;;;;8.93;2.78;;;18.00;99.90;;;;;;4214275;28;20218;-70
2022/12/30 01:51:15;;;;;;;6.53;2.92;;;18.00;99.90;;;;;;4210023;28;20244;-70
2022/12/30 01:53:20;;;;;;;5.90;2.72;;;18.00;99.90;;;;;;4199346;28;20219;-70
2022/12/30 01:55:26;;;;;;;5.20;2.63;;;18.00;99.90;;;;;;4212970;28;20215;-70
2022/12/30 01:57:29;;;;;;;7.05;3.28;;;18.00;99.90;;;;;;4212686;28;20268;-70
2022/12/30 01:59:32;;;;;;;5.90;2.85;;;18.00;99.90;;;;;;4214992;28;20255;-70
2022/12/30 02:01:40;;;;;;;6.07;3.15;;;18.00;99.90;;;;;;4202384;28;20231;-70
2022/12/30 02:03:46;;;;;;;5.10;2.30;;;18.00;99.90;;;;;;4211333;28;20581;-70
2022/12/30 02:05:50;;;;;;;6.38;2.80;;;18.00;99.90;;;;;;4200639;28;20215;-70
2022/12/30 02:07:59;;;;;;;5.72;2.90;;;18.00;99.90;;;;;;4204049;28;20218;-70
2022/12/30 02:10:02;;;;;;;5.55;2.78;;;17.90;99.90;;;;;;4214577;28;20221;-70
2022/12/30 02:12:06;;;;;;;6.47;2.65;;;17.90;99.90;;;;;;4198857;28;20660;-70
2022/12/30 02:14:08;;;;;;;5.82;2.63;;;18.00;99.90;;;;;;4207849;28;20268;-70
2022/12/30 02:16:32;;;;;;;5.65;3.00;;;17.90;99.90;;;;;;4214333;28;20719;-70
2022/12/30 02:18:47;;;;;;;7.28;2.90;;;17.90;99.90;;;;;;4199387;28;20272;-70
2022/12/30 02:21:32;;;;;;;4.63;2.42;;;17.90;99.90;;;;;;4208708;28;20218;-70
2022/12/30 02:24:23;;;;;;;6.05;2.65;;;17.90;99.90;;;;;;4204797;28;20296;-70
2022/12/30 02:27:04;;;;;;;4.70;2.30;;;17.90;99.90;;;;;;4165880;28;20277;-74
2022/12/30 02:29:27;;;;;;;6.32;2.63;;;17.90;99.90;;;;;;4178522;28;20224;-74
2022/12/30 02:31:44;;;;;;;5.63;2.60;;;17.90;99.90;;;;;;4173669;28;20215;-74
2022/12/30 02:33:54;;;;;;;5.05;2.53;;;17.90;99.90;;;;;;4179003;28;20274;-74
2022/12/30 02:36:06;;;;;;;5.28;2.70;;;17.90;99.90;;;;;;4178595;28;20269;-74
2022/12/30 02:38:19;;;;;;;6.38;2.88;;;17.90;99.90;;;;;;4169033;28;20219;-74
2022/12/30 02:44:36;;;;;;;5.20;2.50;;;17.90;99.90;;;;;;4174811;28;20684;-74
2022/12/30 02:45:22;;;;;;;4.85;2.60;;;17.90;99.90;;;;;;4178973;28;20211;-74
2022/12/30 02:47:31;;;;;;;7.22;2.88;;;17.90;99.90;;;;;;4171203;28;20211;-74
2022/12/30 02:49:37;;;;;;;5.43;2.38;;;17.80;99.90;;;;;;4170850;28;20268;-74
2022/12/30 02:54:06;;;;;;;5.65;2.70;;;17.80;99.90;;;;;;4158704;28;20250;-73
2022/12/30 02:56:09;;;;;;;5.45;2.60;;;17.90;99.90;;;;;;4177122;28;20266;-74
2022/12/30 02:58:13;;;;;;;6.70;2.53;;;17.90;99.90;;;;;;4204982;28;20230;-74
2022/12/30 03:05:36;;;;;;;6.38;2.70;;;17.80;99.90;;;;;;4207881;28;20194;-73
2022/12/30 03:07:47;;;;;;;4.72;2.17;;;17.80;99.90;;;;;;4213662;28;20222;-73
2022/12/30 03:12:32;;;;;;;5.45;2.60;;;17.80;99.90;;;;;;4206364;28;20638;-74
2022/12/30 03:14:41;;;;;;;5.80;2.67;;;17.80;99.90;;;;;;4212807;28;20206;-73
2022/12/30 03:16:48;;;;;;;4.95;2.80;;;17.80;99.90;;;;;;4213322;28;20275;-73
2022/12/30 03:18:53;;;;;;;6.10;2.97;;;17.80;99.90;;;;;;4213982;28;20650;-73
2022/12/30 03:20:55;;;;;;;6.72;2.70;;;17.80;99.90;;;;;;4206569;28;20353;-74
2022/12/30 03:27:57;;;;;;;4.43;2.17;;;17.80;99.90;;;;;;4174029;28;20281;-73
2022/12/30 03:30:02;;;;;;;5.57;2.40;;;17.80;99.90;;;;;;4162048;28;20208;-73
2022/12/30 03:32:07;;;;;;;6.18;3.17;;;17.80;99.90;;;;;;4168121;28;20266;-74
2022/12/30 03:34:11;;;;;;;6.28;2.60;;;17.70;99.90;;;;;;4212179;28;20627;-74
2022/12/30 03:36:17;;;;;;;4.72;2.40;;;17.80;99.90;;;;;;4213187;28;20271;-73
2022/12/30 03:38:26;;;;;;;5.82;2.60;;;17.70;99.90;;;;;;4212833;28;20222;-73
2022/12/30 03:40:32;;;;;;;5.97;2.45;;;17.70;99.90;;;;;;4213191;28;20210;-73
2022/12/30 03:42:35;;;;;;;5.13;2.40;;;17.80;99.90;;;;;;4200525;28;20658;-73
2022/12/30 03:44:41;;;;;;;5.30;2.63;;;17.80;99.90;;;;;;4208614;28;20239;-74
2022/12/30 03:46:46;;;;;;;5.70;2.80;;;17.70;99.90;;;;;;4206625;28;20209;-73
2022/12/30 03:48:49;;;;;;;6.25;2.65;;;17.80;99.90;;;;;;4212626;28;20263;-73
2022/12/30 03:50:52;;;;;;;5.25;2.78;;;17.80;99.90;;;;;;4211207;28;20232;-74
2022/12/30 03:52:55;;;;;;;6.15;2.75;;;17.70;99.90;;;;;;4206519;28;20598;-73
2022/12/30 03:54:57;;;;;;;5.97;2.97;;;17.70;99.90;;;;;;4201037;28;20268;-74
2022/12/30 03:56:59;;;;;;;5.22;2.20;;;17.80;99.90;;;;;;4203531;28;20206;-73
2022/12/30 03:59:02;;;;;;;8.13;2.47;;;17.70;99.90;;;;;;4212481;28;20226;-73
2022/12/30 04:01:04;;;;;;;4.22;2.53;;;17.70;99.90;;;;;;4211069;28;20260;-73
2022/12/30 04:03:07;;;;;;;5.75;2.60;;;17.70;99.90;;;;;;4207329;28;20244;-74
2022/12/30 04:05:10;;;;;;;6.30;2.60;;;17.70;99.90;;;;;;4212456;28;20230;-73
2022/12/30 04:07:13;;;;;;;5.10;2.22;;;17.70;99.90;;;;;;4212861;28;20272;-73
2022/12/30 04:09:16;;;;;;;5.22;2.38;;;17.70;99.90;;;;;;4202323;28;20276;-73
2022/12/30 04:11:18;;;;;;;4.00;2.30;;;17.70;99.90;;;;;;4209314;28;20242;-73
2022/12/30 04:13:20;;;;;;;5.05;2.30;;;17.70;99.90;;;;;;4212953;28;20230;-73
2022/12/30 04:15:23;;;;;;;4.75;2.30;;;17.70;99.90;;;;;;4208371;28;20210;-73
2022/12/30 04:17:25;;;;;;;5.68;2.45;;;17.70;99.90;;;;;;4212754;28;20714;-73
2022/12/30 04:19:27;;;;;;;6.38;2.40;;;17.70;99.90;;;;;;4212439;28;20233;-74
2022/12/30 04:21:30;;;;;;;4.43;2.13;;;17.70;99.90;;;;;;4208009;28;20268;-74
2022/12/30 04:23:34;;;;;;;4.43;2.67;;;17.60;99.90;;;;;;4212508;28;20592;-74
2022/12/30 04:25:36;;;;;;;5.32;2.53;;;17.70;99.90;;;;;;4200096;28;20235;-73
2022/12/30 04:27:38;;;;;;;4.90;2.58;;;17.60;99.90;;;;;;4196798;28;20211;-73
2022/12/30 04:29:41;;;;;;;6.15;3.00;;;17.60;99.90;;;;;;4212670;28;20214;-73
2022/12/30 04:31:43;;;;;;;6.38;2.78;;;17.70;99.90;;;;;;4199607;28;20218;-74
2022/12/30 04:33:49;;;;;;;4.55;2.20;;;17.60;99.90;;;;;;4207178;28;20268;-73
2022/12/30 04:35:51;;;;;;;5.25;2.40;;;17.60;99.90;;;;;;4200038;28;20708;-73
2022/12/30 04:37:53;;;;;;;3.63;2.20;;;17.60;99.90;;;;;;4197701;28;20211;-73
2022/12/30 04:39:57;;;;;;;5.18;2.60;;;17.60;99.90;;;;;;4204918;28;20210;-73
2022/12/30 04:41:59;;;;;;;5.18;2.47;;;17.60;99.90;;;;;;4208989;28;20264;-74
2022/12/30 04:44:04;;;;;;;7.07;3.05;;;17.60;99.90;;;;;;4212200;28;20214;-73
2022/12/30 04:46:06;;;;;;;4.38;2.38;;;17.60;99.90;;;;;;4204768;28;20271;-74
2022/12/30 04:48:09;;;;;;;5.85;2.65;;;17.60;99.90;;;;;;4200012;28;20227;-73
2022/12/30 04:50:11;;;;;;;6.22;2.60;;;17.60;99.90;;;;;;4203336;28;20206;-74
2022/12/30 04:52:13;;;;;;;5.70;2.60;;;17.60;99.90;;;;;;4212135;28;20210;-73
2022/12/30 04:54:16;;;;;;;4.65;2.63;;;17.60;99.90;;;;;;4212207;28;20267;-73
2022/12/30 04:56:20;;;;;;;4.45;2.40;;;17.60;99.90;;;;;;4208610;28;20268;-73
2022/12/30 04:58:23;;;;;;;5.65;3.00;;;17.60;99.90;;;;;;4203703;28;20226;-73
2022/12/30 05:00:25;;;;;;;7.55;2.90;;;17.60;99.90;;;;;;4212361;28;20272;-74
2022/12/30 05:02:27;;;;;;;4.93;2.65;;;17.60;99.90;;;;;;4210744;28;20219;-73
2022/12/30 05:04:30;;;;;;;5.68;2.60;;;17.50;99.90;;;;;;4197540;28;20252;-73
2022/12/30 05:06:32;;;;;;;4.90;2.90;;;17.60;99.90;;;;;;4204270;28;20252;-73
2022/12/30 05:08:35;;;;;;;6.25;2.28;;;17.50;99.90;;;;;;4211711;28;20287;-73
2022/12/30 05:10:38;;;;;;;5.68;2.42;;;17.60;99.90;;;;;;4212045;28;20279;-74
2022/12/30 05:12:42;;;;;;;5.35;2.70;;;17.50;99.90;;;;;;4212011;28;20214;-74
2022/12/30 05:14:44;;;;;;;4.13;2.22;;;17.60;99.90;;;;;;4212465;28;20651;-73
2022/12/30 05:16:47;;;;;;;6.20;2.70;;;17.50;99.90;;;;;;4211090;28;20207;-73
2022/12/30 05:18:49;;;;;;;3.05;2.17;;;17.60;99.90;;;;;;4212359;28;20268;-74
2022/12/30 05:20:51;;;;;;;6.35;2.60;;;17.60;99.90;;;;;;4208070;28;20211;-74
2022/12/30 05:22:54;;;;;;;4.65;2.42;;;17.50;99.90;;;;;;4199408;28;20240;-73
2022/12/30 05:27:16;;;;;;;4.22;2.33;;;17.50;99.90;;;;;;4215212;28;20662;-74
2022/12/30 05:29:20;;;;;;;5.22;2.50;;;17.60;99.90;;;;;;4214941;28;20279;-73
2022/12/30 05:31:22;;;;;;;7.53;3.08;;;17.50;99.90;;;;;;4204844;28;20264;-73
2022/12/30 05:33:24;;;;;;;6.90;2.90;;;17.50;99.90;;;;;;4198341;28;20564;-74
2022/12/30 05:35:27;;;;;;;5.18;2.33;;;17.50;99.90;;;;;;4209397;28;20210;-74
2022/12/30 05:37:29;;;;;;;4.68;2.25;;;17.50;99.90;;;;;;4203542;28;20219;-73
2022/12/30 05:39:31;;;;;;;6.90;2.90;;;17.50;99.90;;;;;;4203497;28;20639;-73
2022/12/30 05:41:34;;;;;;;5.25;2.30;;;17.50;99.90;;;;;;4211992;28;20618;-73
2022/12/30 05:43:36;;;;;;;6.40;2.78;;;17.50;99.90;;;;;;4214756;28;20215;-73
2022/12/30 05:45:40;;;;;;;4.22;2.30;;;17.50;99.90;;;;;;4202376;28;20242;-73
2022/12/30 05:47:42;;;;;;;5.43;2.50;;;17.50;99.90;;;;;;4206088;28;20264;-73
2022/12/30 05:49:45;;;;;;;5.03;2.50;;;17.40;99.90;;;;;;4203065;28;20215;-73
2022/12/30 05:51:47;;;;;;;5.53;2.63;;;17.50;99.90;;;;;;4211473;28;20215;-74
2022/12/30 05:53:50;;;;;;;4.13;1.88;;;17.50;99.90;;;;;;4202318;28;20227;-74
2022/12/30 05:55:52;;;;;;;5.38;2.47;;;17.50;99.90;;;;;;4206407;28;20210;-73
2022/12/30 05:57:55;;;;;;;4.30;1.95;;;17.50;99.90;;;;;;4213914;28;20743;-69
2022/12/30 05:59:57;;;;;;;4.63;2.20;;;17.50;99.90;;;;;;4214986;28;20264;-70
2022/12/30 06:02:01;;;;;;;5.43;2.22;;;17.50;99.90;;;;;;4200671;28;20973;-70
2022/12/30 06:04:04;;;;;;;6.63;2.50;;;17.50;99.90;;;;;;4205458;28;20280;-70
2022/12/30 06:06:09;;;;;;;4.95;2.05;;;17.50;99.90;;;;;;4208255;28;20235;-70
2022/12/30 06:08:11;;;;;;;4.88;2.28;;;17.50;99.90;;;;;;4198196;28;20210;-70
2022/12/30 06:10:14;;;;;;;3.72;2.28;;;17.60;99.90;;;;;;4214644;28;20226;-70
2022/12/30 06:12:16;;;;;;;4.65;2.28;;;17.50;99.90;;;;;;4214823;28;20202;-70
2022/12/30 06:14:20;;;;;;;5.13;2.50;;;17.60;99.90;;;;;;4206921;28;20222;-70
2022/12/30 06:16:23;;;;;;;3.95;2.20;;;17.60;99.90;;;;;;4198571;28;20210;-70
2022/12/30 06:18:26;;;;;;;3.78;1.80;;;17.60;99.90;;;;;;4214610;28;20309;-70
2022/12/30 06:20:29;;;;;;;4.63;2.15;;;17.60;99.90;;;;;;4214699;28;20214;-70
2022/12/30 06:22:31;;;;;;;4.07;2.25;;;17.60;99.90;;;;;;4214209;28;20218;-70
2022/12/30 06:24:33;;;;;;;5.70;2.40;;;17.60;99.90;;;;;;4213973;28;20215;-70
2022/12/30 06:26:36;;;;;;;4.30;2.28;;;17.60;99.90;;;;;;4209870;28;20280;-70
2022/12/30 06:28:38;;;;;;;6.05;2.60;;;17.60;99.90;;;;;;4210640;28;20211;-70
2022/12/30 06:30:41;;;;;;;5.00;2.22;;;17.60;99.90;;;;;;4206314;28;20215;-70
2022/12/30 06:32:43;;;;;;;6.15;2.70;;;17.70;99.90;;;;;;4208468;28;20261;-70
2022/12/30 06:34:47;;;;;;;5.53;2.40;;;17.70;99.90;;;;;;4197777;28;20617;-70
2022/12/30 06:36:49;;;;;;;7.43;2.50;;;17.70;99.90;;;;;;4206202;28;20207;-70
2022/12/30 06:38:52;;;;;;;3.75;2.00;;;17.70;99.90;;;;;;4214007;28;20283;-70
2022/12/30 06:40:54;;;;;;;4.35;2.08;;;17.70;99.90;;;;;;4207423;28;20211;-70
2022/12/30 06:42:57;;;;;;;4.10;2.20;;;17.80;99.90;;;;;;4197463;28;20219;-70
2022/12/30 06:44:59;;;;;;;4.03;1.85;;;17.80;99.90;;;;;;4205049;28;20219;-70
2022/12/30 06:47:01;;;;;;;4.70;2.10;;;17.70;99.90;;;;;;4202040;28;20234;-70
2022/12/30 06:49:04;;;;;;;5.60;2.22;;;17.80;99.90;;;;;;4213397;28;20210;-70
2022/12/30 06:51:08;;;;;;;5.32;2.40;;;17.80;99.90;;;;;;4213877;28;20302;-70
2022/12/30 06:53:10;;;;;;;5.45;2.58;;;17.80;99.90;;;;;;4206587;28;20219;-70
2022/12/30 06:55:12;;;;;;;3.90;2.10;;;17.80;99.90;;;;;;4209978;28;20244;-70
2022/12/30 06:57:15;;;;;;;5.80;2.10;;;17.80;99.90;;;;;;4210807;28;20214;-71
2022/12/30 06:59:17;;;;;;;3.25;1.80;;;17.90;99.90;;;;;;4213505;28;20230;-70
2022/12/30 07:01:20;;;;;;;3.92;1.75;;;17.90;99.90;;;;;;4205054;28;20242;-70
2022/12/30 07:03:22;;;;;;;5.40;2.22;;;17.80;99.90;;;;;;4213425;28;20255;-70
2022/12/30 07:05:24;;;;;;;3.90;1.98;;;17.80;99.90;;;;;;4211405;28;20215;-70
2022/12/30 07:07:28;;;;;;;4.13;2.08;;;17.90;99.90;;;;;;4209410;28;20215;-70
2022/12/30 07:09:30;;;;;;;3.75;1.98;;;17.90;99.90;;;;;;4213576;28;20260;-70
2022/12/30 07:11:33;;;;;;;4.00;1.90;;;17.90;99.90;;;;;;4213429;28;20259;-69
2022/12/30 07:13:35;;;;;;;4.63;2.20;;;17.90;99.90;;;;;;4213384;28;20658;-73
2022/12/30 07:15:37;;;;;;;4.47;1.98;;;17.90;99.90;;;;;;4213421;28;20238;-73
2022/12/30 07:17:40;;;;;;;4.95;2.00;;;18.00;99.90;;;;;;4209689;28;20264;-73
2022/12/30 07:19:46;;;;;;;4.22;1.83;;;18.00;99.90;;;;;;4202134;28;20244;-73
2022/12/30 07:21:49;;;;;;;4.25;2.00;;;18.00;99.90;;;;;;4208593;28;20272;-73
2022/12/30 07:23:53;;;;;;;3.67;1.85;;;18.00;99.90;;;;;;4213191;28;20555;-73
2022/12/30 07:25:55;;;;;;;4.20;1.90;;;18.00;99.90;;;;;;4213714;28;20238;-73
2022/12/30 07:27:59;;;;;;;3.55;1.70;;;18.00;99.90;;;;;;4213260;28;20210;-73
2022/12/30 07:30:01;;;;;;;4.22;2.03;;;18.00;99.90;;;;;;4204004;28;20389;-73
2022/12/30 07:32:04;;;;;;;4.25;2.10;;;18.00;99.90;;;;;;4213414;28;20214;-73
2022/12/30 07:34:06;;;;;;;3.45;1.73;;;18.00;99.90;;;;;;4213371;28;20283;-73
2022/12/30 07:36:09;;;;;;;5.25;2.17;;;18.00;99.90;;;;;;4199975;28;20951;-73
2022/12/30 07:38:11;;;;;;;4.80;2.22;;;18.10;99.90;;;;;;4213042;28;20218;-73
2022/12/30 07:40:15;;;;;;;4.85;1.83;;;18.10;99.90;;;;;;4213052;28;20237;-73
2022/12/30 07:42:18;;;;;;;4.60;2.47;;;18.00;99.90;;;;;;4212875;28;20211;-73
2022/12/30 07:44:20;;;;;;;2.22;1.38;;;18.10;99.90;;;;;;4212696;28;20219;-73
2022/12/30 07:46:22;;;;;;;3.47;1.92;;;18.00;99.90;;;;;;4210925;28;20740;-73
2022/12/30 07:48:25;;;;;;;2.70;1.75;;;18.00;99.90;;;;;;4204817;28;20826;-73
2022/12/30 07:50:27;;;;;;;3.70;1.80;;;18.10;99.90;;;;;;4210538;28;20654;-73
2022/12/30 07:52:32;;;;;;;4.75;2.00;;;18.10;99.90;;;;;;4209913;28;20219;-73
2022/12/30 07:54:35;;;;;;;4.07;1.98;;;18.10;99.90;;;;;;4204295;28;20207;-73
2022/12/30 07:56:41;;;;;;;5.78;2.20;;;18.10;99.90;;;;;;4206027;28;20207;-73
2022/12/30 07:58:43;;;;;;;4.80;1.70;;;18.10;99.90;;;;;;4211566;28;20322;-73
2022/12/30 08:00:45;;;;;;;3.38;2.03;;;18.10;99.90;;;;;;4212894;28;20658;-73
2022/12/30 08:02:48;;;;;;;3.63;1.50;;;18.00;99.90;;;;;;4207082;28;20249;-73
2022/12/30 08:04:50;;;;;;;4.72;1.92;;;18.10;99.90;;;;;;4209443;28;20271;-73
2022/12/30 08:06:52;;;;;;;3.70;2.20;;;18.10;99.90;;;;;;4212624;28;20230;-73
2022/12/30 08:08:55;;;;;;;3.75;1.65;;;18.10;99.90;;;;;;4212688;28;20647;-73
2022/12/30 08:10:58;;;;;;;4.30;1.92;;;18.10;99.90;;;;;;4207959;28;20276;-73
2022/12/30 08:13:03;;;;;;;5.03;2.03;;;18.10;99.90;;;;;;4205469;28;20729;-73
2022/12/30 08:15:06;;;;;;;2.67;1.58;;;18.10;99.90;;;;;;4203955;28;20225;-73
2022/12/30 08:17:09;;;;;;;2.78;1.63;;;18.10;99.90;;;;;;4211435;28;20663;-73
2022/12/30 08:19:11;;;;;;;3.30;1.80;;;18.10;99.90;;;;;;4212774;28;20317;-73
2022/12/30 08:21:16;;;;;;;3.85;1.60;;;18.10;99.90;;;;;;4212764;28;20271;-73
2022/12/30 08:23:18;;;;;;;2.60;1.50;;;18.10;99.90;;;;;;4207477;28;20271;-73
2022/12/30 08:25:20;;;;;;;3.08;1.90;;;18.20;99.90;;;;;;4212077;28;20226;-73
2022/12/30 08:27:23;;;;;;;2.97;1.38;;;18.10;99.90;;;;;;4212370;28;20271;-73
2022/12/30 08:29:27;;;;;;;5.05;1.70;;;18.10;99.90;;;;;;4202543;28;20219;-73
2022/12/30 08:31:30;;;;;;;3.72;1.88;;;18.10;99.90;;;;;;4211869;28;20252;-73
2022/12/30 08:33:32;;;;;;;4.10;2.00;;;18.20;99.90;;;;;;4200767;28;20211;-73
2022/12/30 08:35:35;;;;;;;4.68;2.10;;;18.10;99.90;;;;;;4196061;28;20207;-73
2022/12/30 08:37:37;;;;;;;3.53;1.60;;;18.20;99.90;;;;;;4202173;28;20223;-73
2022/12/30 08:39:39;;;;;;;2.65;1.48;;;18.20;99.90;;;;;;4212571;28;20265;-73
2022/12/30 08:41:44;;;;;;;4.13;1.80;;;18.20;99.90;;;;;;4208603;28;20272;-73
2022/12/30 08:43:46;;;;;;;3.47;2.00;;;18.30;99.90;;;;;;4198713;28;20273;-73
2022/12/30 08:45:57;;;;;;;2.53;1.60;;;18.20;99.90;;;;;;4199500;28;21015;-73
2022/12/30 08:48:00;;;;;;;4.80;1.77;;;18.20;99.90;;;;;;4212796;28;20260;-73
2022/12/30 08:50:03;;;;;;;2.63;1.38;;;18.20;99.90;;;;;;4196286;28;20264;-69
2022/12/30 08:52:05;;;;;;;2.83;1.40;;;18.30;99.90;;;;;;4212467;28;20256;-69
2022/12/30 08:54:08;;;;;;;3.22;1.83;;;18.20;99.90;;;;;;4201526;28;20257;-69
2022/12/30 08:56:15;;;;;;;3.80;1.65;;;18.20;99.90;;;;;;4211971;28;20272;-69
2022/12/30 08:58:17;;;;;;;3.60;1.40;;;18.20;99.90;;;;;;4212016;28;20277;-69
2022/12/30 09:00:20;;;;;;;4.10;1.55;;;18.20;99.90;;;;;;4215898;28;20222;-69
2022/12/30 09:02:24;;;;;;;2.80;1.40;;;18.30;99.90;;;;;;4211908;28;20215;-69
2022/12/30 09:04:28;;;;;;;3.15;1.60;;;18.30;99.90;;;;;;4215606;28;20222;-69
2022/12/30 09:06:31;;;;;;;2.83;1.17;;;18.30;99.90;;;;;;4201655;28;20211;-69
2022/12/30 09:08:34;;;;;;;3.05;1.60;;;18.30;99.90;;;;;;4216058;28;20268;-69
2022/12/30 09:10:36;;;;;;;3.75;1.63;;;18.30;99.90;;;;;;4211546;28;20215;-70
2022/12/30 09:12:38;;;;;;;3.20;1.40;;;18.30;99.90;;;;;;4208507;28;20211;-69
2022/12/30 09:14:41;;;;;;;3.10;1.60;;;18.30;99.90;;;;;;4215238;28;20240;-69
2022/12/30 09:16:44;;;;;;;2.28;1.33;;;18.30;99.90;;;;;;4214885;28;20214;-69
2022/12/30 09:18:48;;;;;;;4.47;1.85;;;18.30;99.90;;;;;;4209810;28;20248;-69
2022/12/30 09:20:51;;;;;;;1.67;1.50;;;18.30;99.90;;;;;;4209264;28;20623;-69
2022/12/30 09:22:53;;;;;;;4.10;1.60;;;18.30;99.90;;;;;;4215107;28;20620;-69
2022/12/30 09:24:55;;;;;;;3.35;1.50;;;18.30;99.90;;;;;;4215319;28;20214;-69
2022/12/30 09:26:58;;;;;;;2.50;1.40;;;18.30;99.90;;;;;;4214826;28;20219;-69
2022/12/30 09:29:00;;;;;;;3.90;1.80;;;18.30;99.90;;;;;;4215431;28;20252;-70
2022/12/30 09:31:03;;;;;;;3.83;1.70;;;18.30;99.90;;;;;;4208291;28;20237;-70
2022/12/30 09:33:05;;;;;;;5.68;2.03;;;18.40;99.90;;;;;;4215121;28;20218;-69
2022/12/30 09:35:10;;;;;;;3.03;1.52;;;18.30;99.90;;;;;;4215228;28;20252;-69
2022/12/30 09:37:12;;;;;;;3.40;1.55;;;18.30;99.90;;;;;;4214752;28;20271;-69
2022/12/30 09:39:14;;;;;;;4.28;1.52;;;18.40;99.90;;;;;;4205368;28;20215;-70
2022/12/30 09:43:56;;;;;;;3.30;1.30;;;18.40;99.90;;;;;;4214211;28;20211;-69
2022/12/30 09:46:17;;;;;;;3.53;1.60;;;18.40;99.90;;;;;;4214929;28;20666;-69
2022/12/30 09:48:24;;;;;;;4.22;1.55;;;18.40;99.90;;;;;;4199833;28;20239;-69
2022/12/30 09:50:34;;;;;;;2.78;1.38;;;18.40;99.90;;;;;;4211949;28;20218;-69
2022/12/30 09:52:41;;;;;;;4.03;1.77;;;18.40;99.90;;;;;;4198756;28;20215;-69
2022/12/30 09:54:50;;;;;;;2.45;1.27;;;18.40;99.90;;;;;;4209676;28;20223;-70
2022/12/30 09:57:30;;;;;;;3.10;1.45;;;18.40;99.90;;;;;;4203723;28;20214;-69
2022/12/30 09:59:21;;;;;;;2.65;1.40;;;18.40;99.90;;;;;;4214150;28;20598;-69
2022/12/30 10:01:29;;;;;;;3.85;1.48;;;18.40;99.90;;;;;;4203854;28;20990;-69
2022/12/30 10:03:32;;;;;;;2.00;1.17;;;18.40;99.90;;;;;;4214145;28;20658;-69
2022/12/30 10:05:59;;;;;;;2.85;1.20;;;18.40;99.90;;;;;;4214721;28;20271;-69
2022/12/30 10:08:13;;;;;;;2.85;1.30;;;18.50;99.90;;;;;;4213806;28;20234;-69
2022/12/30 10:10:20;;;;;;;1.83;1.20;;;18.50;99.90;;;;;;4201952;28;20708;-69
2022/12/30 10:12:35;;;;;;;2.50;1.30;;;18.50;99.90;;;;;;4212792;28;20346;-69
2022/12/30 10:14:47;;;;;;;2.90;1.33;;;18.50;99.90;;;;;;4207476;28;20229;-69
2022/12/30 10:17:00;;;;;;;3.10;1.52;;;18.50;99.90;;;;;;4203889;28;20272;-69
2022/12/30 10:19:11;;;;;;;2.42;1.30;;;18.50;99.90;;;;;;4214510;28;20198;-69
2022/12/30 10:21:27;;;;;;;2.42;1.35;;;18.50;99.90;;;;;;4205068;28;20683;-70
2022/12/30 10:23:44;;;;;;;3.08;1.20;;;18.50;99.90;;;;;;4197897;28;20203;-69
2022/12/30 10:25:54;;;;;;;3.60;1.45;;;18.50;99.90;;;;;;4211433;28;20219;-69
2022/12/30 10:27:57;;;;;;;2.53;1.33;;;18.50;99.90;;;;;;4209698;28;20619;-69
2022/12/30 10:30:01;;;;;;;2.72;1.40;;;18.50;99.90;;;;;;4214161;28;20211;-69
2022/12/30 10:32:15;;;;;;;3.45;1.85;;;18.50;99.90;;;;;;4198635;28;20218;-69
2022/12/30 10:34:22;;;;;;;2.15;1.35;;;18.50;99.90;;;;;;4211641;28;20215;-69
2022/12/30 10:36:32;;;;;;;2.25;1.27;;;18.60;99.90;;;;;;4200923;28;20230;-69
2022/12/30 10:38:35;;;;;;;2.47;1.40;;;18.60;99.90;;;;;;4208102;28;20214;-70
2022/12/30 10:40:46;;;;;;;2.47;1.55;;;18.60;99.90;;;;;;4210133;28;20219;-70
2022/12/30 10:43:05;;;;;;;2.67;1.40;;;18.60;99.90;;;;;;4197058;28;20716;-69
2022/12/30 10:45:31;;;;;;;1.67;0.98;;;18.60;99.90;;;;;;4207826;28;20295;-69
2022/12/30 10:47:47;;;;;;;2.53;1.17;;;18.60;99.90;;;;;;4209139;28;20276;-69
2022/12/30 10:50:07;;;;;;;3.08;1.45;;;18.60;99.90;;;;;;4209221;28;20210;-69
2022/12/30 10:52:14;;;;;;;2.20;1.17;;;18.60;99.90;;;;;;4212222;28;20218;-70
2022/12/30 10:54:16;;;;;;;2.72;1.30;;;18.60;99.90;;;;;;4203039;28;20233;-70
2022/12/30 10:56:23;;;;;;;2.40;1.30;;;18.60;99.90;;;;;;4199992;28;20611;-69
2022/12/30 10:58:30;;;;;;;2.15;1.25;;;18.60;99.90;;;;;;4213365;28;20276;-71
2022/12/30 11:00:35;;;;;;;2.33;1.30;;;18.60;99.90;;;;;;4209749;28;20211;-69
2022/12/30 11:02:38;;;;;;;2.28;1.25;;;18.60;99.90;;;;;;4205971;28;20207;-70
2022/12/30 11:04:42;;;;;;;2.38;1.55;;;18.60;99.90;;;;;;4209186;28;20257;-69
2022/12/30 11:06:59;;;;;;;2.72;1.40;;;18.60;99.90;;;;;;4200028;28;20264;-70
2022/12/30 11:09:22;;;;;;;2.78;1.10;;;18.70;99.90;;;;;;4213580;28;20230;-69
2022/12/30 11:14:42;;;;;;;2.22;1.33;;;18.70;99.90;;;;;;4213698;28;20222;-70
2022/12/30 11:16:18;;;;;;;2.10;1.63;;;18.70;99.90;;;;;;4211894;28;20738;-69
2022/12/30 11:18:26;;;;;;;1.95;1.00;;;18.70;99.90;;;;;;4211446;28;20202;-69
2022/12/30 11:20:33;;;;;;;2.90;1.55;;;18.70;99.90;;;;;;4212453;28;20267;-69
2022/12/30 11:22:36;;;;;;;3.20;1.58;;;18.70;99.90;;;;;;4209503;28;20268;-69
2022/12/30 11:24:45;;;;;;;2.17;1.23;;;18.70;99.90;;;;;;4210532;28;20257;-69
2022/12/30 11:26:49;;;;;;;2.58;1.30;;;18.70;99.90;;;;;;4213505;28;20210;-69
2022/12/30 11:28:54;;;;;;;3.60;1.30;;;18.70;99.90;;;;;;4207324;28;20230;-69
2022/12/30 11:31:02;;;;;;;3.13;1.40;;;18.70;99.90;;;;;;4197878;28;20681;-69
2022/12/30 11:33:07;;;;;;;2.47;1.30;;;18.70;99.90;;;;;;4213622;28;20214;-69
2022/12/30 11:35:33;;;;;;;2.65;1.42;;;18.70;99.90;;;;;;4212291;28;20245;-69
2022/12/30 11:37:37;;;;;;;3.30;1.48;;;18.70;99.90;;;;;;4212676;28;20214;-69
2022/12/30 11:39:41;;;;;;;3.83;1.35;;;18.70;99.90;;;;;;4200499;28;20249;-69
2022/12/30 11:41:48;;;;;;;3.45;1.33;;;18.70;99.90;;;;;;4209839;28;20632;-69
2022/12/30 11:43:52;;;;;;;3.25;1.63;;;18.70;99.90;;;;;;4212288;28;20276;-70
2022/12/30 11:46:02;;;;;;;4.45;1.58;;;18.70;99.90;;;;;;4213170;28;20218;-69
2022/12/30 11:48:05;;;;;;;3.30;1.50;;;18.70;99.90;;;;;;4205942;28;20222;-69
2022/12/30 11:50:17;;;;;;;3.92;1.50;;;18.80;99.90;;;;;;4208644;28;20210;-69